createdAt,value
2023-05-01T00:01:43.149Z,102101.97
2023-05-01T00:04:09.676Z,102102.41
2023-05-01T00:06:36.251Z,102104.78
2023-05-01T00:09:03.097Z,102095.75
2023-05-01T00:11:29.492Z,102099.97
2023-05-01T00:13:55.849Z,102097.81
2023-05-01T00:16:22.525Z,102093.75
2023-05-01T00:18:48.973Z,102094.47
2023-05-01T00:21:15.576Z,102091.19
2023-05-01T00:23:41.957Z,102074.00
2023-05-01T00:26:08.481Z,102080.75
2023-05-01T00:28:34.889Z,102077.97
2023-05-01T00:31:01.276Z,102076.81
2023-05-01T00:33:27.641Z,102068.47
2023-05-01T00:35:55.612Z,102062.53
2023-05-01T00:38:23.785Z,102062.13
2023-05-01T00:40:50.134Z,102060.94
2023-05-01T00:43:16.549Z,102060.38
2023-05-01T00:45:46.039Z,102059.66
2023-05-01T00:48:12.527Z,102058.88
2023-05-01T00:50:39.619Z,102055.91
2023-05-01T00:53:06.092Z,102051.69
2023-05-01T00:55:33.646Z,102035.22
2023-05-01T00:58:01.574Z,102054.69
2023-05-01T01:00:29.460Z,102043.25
2023-05-01T01:02:56.064Z,102042.72
2023-05-01T01:05:25.752Z,102041.63
2023-05-01T01:08:05.030Z,102032.41
2023-05-01T01:10:36.988Z,102033.50
2023-05-01T01:13:28.945Z,102026.00
2023-05-01T01:16:15.897Z,102020.91
2023-05-01T01:18:52.958Z,102013.44
2023-05-01T01:21:28.252Z,101992.84
2023-05-01T01:24:00.928Z,102017.31
2023-05-01T01:26:33.413Z,102014.09
2023-05-01T01:29:29.305Z,102006.97
2023-05-01T01:32:31.886Z,102002.00
2023-05-01T01:35:04.852Z,102008.38
2023-05-01T01:37:41.448Z,101997.34
2023-05-01T01:40:13.983Z,102001.56
2023-05-01T01:42:44.830Z,101993.94
2023-05-01T01:45:30.235Z,101977.50
2023-05-01T01:47:57.603Z,101995.00
2023-05-01T01:50:26.711Z,101994.88
2023-05-01T01:52:54.874Z,101988.13
2023-05-01T01:55:25.349Z,101987.72
2023-05-01T01:57:52.510Z,101975.75
2023-05-01T02:00:20.627Z,101980.59
2023-05-01T02:02:48.712Z,101975.06
2023-05-01T02:05:17.765Z,101981.75
2023-05-01T02:07:47.375Z,101975.75
2023-05-01T02:10:16.129Z,101961.78
2023-05-01T02:12:45.964Z,101980.44
2023-05-01T02:15:15.315Z,101972.81
2023-05-01T02:17:42.080Z,101965.94
2023-05-01T02:20:12.600Z,101963.53
2023-05-01T02:22:41.008Z,101958.56
2023-05-01T02:25:10.548Z,101949.53
2023-05-01T02:27:43.700Z,101951.72
2023-05-01T02:30:11.264Z,101931.50
2023-05-01T02:32:37.879Z,101929.16
2023-05-01T02:35:04.772Z,101927.06
2023-05-01T02:37:32.242Z,101922.56
2023-05-01T02:39:59.106Z,101916.69
2023-05-01T02:42:28.078Z,101918.91
2023-05-01T02:44:59.984Z,101901.41
2023-05-01T02:47:28.967Z,101895.09
2023-05-01T02:49:56.579Z,101899.47
2023-05-01T02:52:23.376Z,101895.47
2023-05-01T02:54:50.305Z,101889.59
2023-05-01T02:57:18.013Z,101887.66
2023-05-01T02:59:44.371Z,101882.75
2023-05-01T03:02:10.760Z,101875.97
2023-05-01T03:04:37.259Z,101865.00
2023-05-01T03:07:04.659Z,101871.44
2023-05-01T03:09:31.890Z,101875.81
2023-05-01T03:11:58.251Z,101864.03
2023-05-01T03:14:25.138Z,101854.47
2023-05-01T03:16:51.888Z,101861.66
2023-05-01T03:19:18.534Z,101853.34
2023-05-01T03:21:44.913Z,101855.28
2023-05-01T03:24:11.679Z,101854.78
2023-05-01T03:26:38.341Z,101853.41
2023-05-01T03:29:04.817Z,101843.69
2023-05-01T03:31:31.279Z,101844.19
2023-05-01T03:33:58.419Z,101840.44
2023-05-01T03:36:25.211Z,101810.38
2023-05-01T03:38:51.566Z,101847.81
2023-05-01T03:41:17.934Z,101838.00
2023-05-01T03:43:44.315Z,101814.28
2023-05-01T03:46:10.869Z,101834.66
2023-05-01T03:48:37.283Z,101832.69
2023-05-01T03:51:04.334Z,101832.31
2023-05-01T03:53:30.732Z,101826.44
2023-05-01T03:55:57.315Z,101823.22
2023-05-01T03:58:23.734Z,101825.50
2023-05-01T04:00:50.992Z,101821.78
2023-05-01T04:03:17.786Z,101818.56
2023-05-01T04:05:44.581Z,101818.44
2023-05-01T04:08:11.265Z,101817.56
2023-05-01T04:10:37.636Z,101810.88
2023-05-01T04:13:04.814Z,101814.13
2023-05-01T04:15:31.175Z,101807.41
2023-05-01T04:17:57.724Z,101805.38
2023-05-01T04:20:24.216Z,101806.16
2023-05-01T04:22:50.610Z,101804.94
2023-05-01T04:25:17.075Z,101805.91
2023-05-01T04:27:43.452Z,101805.09
2023-05-01T04:30:10.596Z,101797.28
2023-05-01T04:32:37.054Z,101799.69
2023-05-01T04:35:04.806Z,101794.66
2023-05-01T04:37:31.204Z,101800.47
2023-05-01T04:39:57.924Z,101793.44
2023-05-01T04:42:30.701Z,101795.88
2023-05-01T04:44:57.099Z,101794.41
2023-05-01T04:47:23.717Z,101787.41
2023-05-01T04:49:50.073Z,101791.41
2023-05-01T04:52:16.452Z,101794.22
2023-05-01T04:54:42.828Z,101789.44
2023-05-01T04:57:09.291Z,101790.47
2023-05-01T04:59:35.920Z,101794.97
2023-05-01T05:02:02.548Z,101796.22
2023-05-01T05:04:29.132Z,101792.28
2023-05-01T05:06:55.561Z,101785.09
2023-05-01T05:09:21.943Z,101791.72
2023-05-01T05:11:48.310Z,101785.94
2023-05-01T05:14:14.702Z,101791.88
2023-05-01T05:16:41.133Z,101782.69
2023-05-01T05:19:07.660Z,101779.28
2023-05-01T05:21:35.117Z,101775.84
2023-05-01T05:24:01.484Z,101777.63
2023-05-01T05:26:28.351Z,101766.97
2023-05-01T05:28:54.819Z,101779.22
2023-05-01T05:31:21.221Z,101774.34
2023-05-01T05:33:47.679Z,101764.03
2023-05-01T05:36:14.165Z,101776.19
2023-05-01T05:38:40.719Z,101752.91
2023-05-01T05:41:07.095Z,101756.56
2023-05-01T05:43:33.483Z,101757.31
2023-05-01T05:46:00.514Z,101752.28
2023-05-01T05:48:27.648Z,101747.47
2023-05-01T05:50:54.074Z,101753.78
2023-05-01T05:53:20.805Z,101746.91
2023-05-01T05:55:48.271Z,101727.47
2023-05-01T05:58:19.886Z,101747.53
2023-05-01T06:00:48.327Z,101747.19
2023-05-01T06:03:53.156Z,101739.50
2023-05-01T06:06:19.629Z,101735.50
2023-05-01T06:08:46.262Z,101723.06
2023-05-01T06:11:12.733Z,101725.78
2023-05-01T06:13:39.092Z,101722.03
2023-05-01T06:16:07.310Z,101736.34
2023-05-01T06:18:33.866Z,101734.00
2023-05-01T06:21:00.438Z,101728.47
2023-05-01T06:23:26.819Z,101737.03
2023-05-01T06:25:53.207Z,101736.56
2023-05-01T06:28:19.559Z,101740.22
2023-05-01T06:30:46.294Z,101732.13
2023-05-01T06:33:12.719Z,101731.50
2023-05-01T06:35:39.824Z,101715.44
2023-05-01T06:38:06.195Z,101729.44
2023-05-01T06:40:34.749Z,101730.47
2023-05-01T06:43:02.654Z,101733.53
2023-05-01T06:45:29.110Z,101733.53
2023-05-01T06:47:55.708Z,101735.22
2023-05-01T06:50:22.125Z,101729.44
2023-05-01T06:52:48.491Z,101731.97
2023-05-01T06:55:14.874Z,101728.78
2023-05-01T06:57:41.295Z,101734.84
2023-05-01T07:00:08.282Z,101725.22
2023-05-01T07:02:35.207Z,101727.63
2023-05-01T07:05:02.042Z,101725.91
2023-05-01T07:07:28.396Z,101723.84
2023-05-01T07:09:55.119Z,101727.22
2023-05-01T07:12:23.213Z,101724.91
2023-05-01T07:14:49.587Z,101721.44
2023-05-01T07:17:15.972Z,101723.84
2023-05-01T07:19:42.485Z,101711.44
2023-05-01T07:22:08.836Z,101717.81
2023-05-01T07:24:35.202Z,101718.19
2023-05-01T07:27:01.592Z,101717.34
2023-05-01T07:29:28.022Z,101704.72
2023-05-01T07:31:54.570Z,101702.28
2023-05-01T07:34:21.342Z,101701.91
2023-05-01T07:36:47.717Z,101696.88
2023-05-01T07:39:14.812Z,101703.53
2023-05-01T07:41:41.198Z,101703.16
2023-05-01T07:44:07.558Z,101711.44
2023-05-01T07:46:35.118Z,101695.53
2023-05-01T07:49:01.966Z,101700.03
2023-05-01T07:51:28.318Z,101695.06
2023-05-01T07:53:54.748Z,101700.69
2023-05-01T07:56:21.399Z,101687.47
2023-05-01T07:58:47.759Z,101691.19
2023-05-01T08:01:14.344Z,101686.28
2023-05-01T08:03:40.820Z,101690.53
2023-05-01T08:06:07.685Z,101686.53
2023-05-01T08:08:34.296Z,101690.59
2023-05-01T08:11:00.793Z,101695.19
2023-05-01T08:13:27.220Z,101690.41
2023-05-01T08:15:53.671Z,101694.84
2023-05-01T08:18:21.076Z,101693.22
2023-05-01T08:20:48.571Z,101688.31
2023-05-01T08:23:18.626Z,101682.31
2023-05-01T08:25:50.918Z,101686.63
2023-05-01T08:28:18.238Z,101680.81
2023-05-01T08:30:46.161Z,101688.75
2023-05-01T08:33:12.604Z,101678.66
2023-05-01T08:35:39.046Z,101674.28
2023-05-01T08:38:05.456Z,101653.19
2023-05-01T08:40:36.084Z,101679.28
2023-05-01T08:43:02.700Z,101674.44
2023-05-01T08:45:35.766Z,101671.31
2023-05-01T08:48:06.007Z,101680.25
2023-05-01T08:50:36.312Z,101671.47
2023-05-01T08:53:04.165Z,101680.88
2023-05-01T08:55:32.345Z,101681.44
2023-05-01T08:57:59.575Z,101665.22
2023-05-01T09:00:27.283Z,101661.84
2023-05-01T09:02:55.184Z,101663.97
2023-05-01T09:05:21.635Z,101672.56
2023-05-01T09:07:48.585Z,101672.75
2023-05-01T09:10:21.677Z,101665.63
2023-05-01T09:12:54.164Z,101671.63
2023-05-01T09:15:21.558Z,101642.56
2023-05-01T09:17:48.168Z,101662.94
2023-05-01T09:20:15.610Z,101667.28
2023-05-01T09:22:42.113Z,101673.34
2023-05-01T09:25:10.794Z,101662.28
2023-05-01T09:27:38.242Z,101646.75
2023-05-01T09:30:06.620Z,101659.50
2023-05-01T09:32:33.282Z,101660.41
2023-05-01T09:35:14.427Z,101639.91
2023-05-01T09:37:41.353Z,101642.13
2023-05-01T09:40:14.906Z,101646.97
2023-05-01T09:42:50.097Z,101652.19
2023-05-01T09:45:17.219Z,101651.53
2023-05-01T09:47:44.189Z,101653.59
2023-05-01T09:50:13.682Z,101647.91
2023-05-01T09:52:40.269Z,101632.75
2023-05-01T09:55:13.951Z,101641.81
2023-05-01T09:57:42.796Z,101642.19
2023-05-01T10:00:11.176Z,101633.47
2023-05-01T10:02:38.444Z,101637.03
2023-05-01T10:05:06.024Z,101635.81
2023-05-01T10:07:32.439Z,101631.84
2023-05-01T10:10:01.353Z,101626.31
2023-05-01T10:12:30.372Z,101619.59
2023-05-01T10:14:57.793Z,101615.44
2023-05-01T10:17:24.258Z,101617.34
2023-05-01T10:19:51.443Z,101619.16
2023-05-01T10:22:17.873Z,101612.63
2023-05-01T10:24:46.064Z,101618.72
2023-05-01T10:27:13.246Z,101621.81
2023-05-01T10:29:46.251Z,101624.88
2023-05-01T10:32:13.018Z,101618.03
2023-05-01T10:34:45.184Z,101608.81
2023-05-01T10:37:34.112Z,101613.47
2023-05-01T10:40:00.573Z,101625.94
2023-05-01T10:42:28.089Z,101606.03
2023-05-01T10:45:30.506Z,101610.28
2023-05-01T10:47:57.051Z,101614.28
2023-05-01T10:50:23.452Z,101609.47
2023-05-01T10:53:11.808Z,101603.31
2023-05-01T10:55:39.533Z,101606.78
2023-05-01T10:58:05.960Z,101612.16
2023-05-01T11:00:34.108Z,101609.41
2023-05-01T11:03:22.425Z,101609.41
2023-05-01T11:06:05.485Z,101611.19
2023-05-01T11:08:32.698Z,101602.38
2023-05-01T11:11:22.666Z,101605.94
2023-05-01T11:13:59.822Z,101604.25
2023-05-01T11:16:46.011Z,101601.25
2023-05-01T11:19:38.298Z,101602.63
2023-05-01T11:22:12.902Z,101598.91
2023-05-01T11:24:39.420Z,101598.28
2023-05-01T11:27:06.773Z,101580.50
2023-05-01T11:29:33.653Z,101590.91
2023-05-01T11:32:00.955Z,101590.81
2023-05-01T11:34:28.048Z,101584.13
2023-05-01T11:36:54.466Z,101604.88
2023-05-01T11:39:22.087Z,101593.97
2023-05-01T11:41:48.543Z,101593.00
2023-05-01T11:44:17.271Z,101588.94
2023-05-01T11:46:44.220Z,101589.06
2023-05-01T11:49:11.464Z,101596.34
2023-05-01T11:51:37.995Z,101583.28
2023-05-01T11:54:15.893Z,101591.31
2023-05-01T11:56:42.707Z,101592.13
2023-05-01T11:59:17.963Z,101581.41
2023-05-01T12:01:45.718Z,101578.97
2023-05-01T12:04:13.784Z,101587.47
2023-05-01T12:06:45.969Z,101587.84
2023-05-01T12:09:23.195Z,101592.00
2023-05-01T12:11:52.701Z,101590.31
2023-05-01T12:14:20.477Z,101583.47
2023-05-01T12:16:47.758Z,101575.91
2023-05-01T12:19:15.580Z,101558.84
2023-05-01T12:21:42.204Z,101572.78
2023-05-01T12:24:16.387Z,101581.97
2023-05-01T12:26:44.329Z,101567.50
2023-05-01T12:29:11.535Z,101581.94
2023-05-01T12:31:46.861Z,101559.66
2023-05-01T12:34:13.576Z,101560.22
2023-05-01T12:36:40.085Z,101556.09
2023-05-01T12:39:13.711Z,101571.34
2023-05-01T12:41:44.453Z,101581.41
2023-05-01T12:44:24.745Z,101572.91
2023-05-01T12:47:05.207Z,101564.00
2023-05-01T12:49:32.464Z,101550.81
2023-05-01T12:52:03.502Z,101532.41
2023-05-01T12:54:34.697Z,101555.50
2023-05-01T12:57:12.142Z,101549.81
2023-05-01T12:59:40.045Z,101556.75
2023-05-01T13:02:17.690Z,101556.41
2023-05-01T13:04:44.705Z,101572.03
2023-05-01T13:07:16.470Z,101575.63
2023-05-01T13:09:57.699Z,101579.81
2023-05-01T13:12:25.307Z,101583.16
2023-05-01T13:14:51.875Z,101567.19
2023-05-01T13:17:29.463Z,101570.53
2023-05-01T13:20:00.799Z,101578.53
2023-05-01T13:22:36.233Z,101578.78
2023-05-01T13:25:15.850Z,101576.63
2023-05-01T13:27:47.265Z,101582.78
2023-05-01T13:30:13.729Z,101573.50
2023-05-01T13:32:41.196Z,101578.06
2023-05-01T13:35:08.492Z,101581.44
2023-05-01T13:37:39.867Z,101583.44
2023-05-01T13:40:06.866Z,101573.97
2023-05-01T13:42:33.340Z,101580.53
2023-05-01T13:44:59.992Z,101580.75
2023-05-01T13:47:27.177Z,101580.28
2023-05-01T13:49:54.321Z,101578.75
2023-05-01T13:52:20.893Z,101578.56
2023-05-01T13:54:48.443Z,101586.38
2023-05-01T13:57:17.230Z,101561.25
2023-05-01T13:59:45.270Z,101581.53
2023-05-01T14:02:22.802Z,101547.31
2023-05-01T14:04:49.333Z,101586.00
2023-05-01T14:07:21.686Z,101584.84
2023-05-01T14:09:56.084Z,101577.69
2023-05-01T14:12:30.576Z,101573.19
2023-05-01T14:14:58.119Z,101572.44
2023-05-01T14:17:36.052Z,101575.31
2023-05-01T14:20:04.822Z,101570.50
2023-05-01T14:22:45.501Z,101584.84
2023-05-01T14:25:31.215Z,101587.47
2023-05-01T14:27:59.458Z,101578.44
2023-05-01T14:30:26.934Z,101588.16
2023-05-01T14:32:53.866Z,101579.63
2023-05-01T14:35:22.110Z,101586.72
2023-05-01T14:37:48.647Z,101584.63
2023-05-01T14:40:17.477Z,101589.91
2023-05-01T14:42:44.616Z,101589.47
2023-05-01T14:45:14.338Z,101587.56
2023-05-01T14:47:43.922Z,101596.97
2023-05-01T14:50:11.721Z,101585.50
2023-05-01T14:52:39.132Z,101589.22
2023-05-01T14:55:06.456Z,101595.72
2023-05-01T14:57:32.820Z,101596.03
2023-05-01T14:59:59.206Z,101587.44
2023-05-01T15:02:25.654Z,101592.22
2023-05-01T15:04:52.078Z,101592.44
2023-05-01T15:07:18.531Z,101591.38
2023-05-01T15:09:46.414Z,101594.69
2023-05-01T15:12:12.798Z,101594.25
2023-05-01T15:14:39.171Z,101575.00
2023-05-01T15:17:05.929Z,101591.13
2023-05-01T15:19:32.550Z,101599.72
2023-05-01T15:21:58.949Z,101596.28
2023-05-01T15:24:25.464Z,101593.25
2023-05-01T15:26:51.806Z,101598.25
2023-05-01T15:29:18.147Z,101599.09
2023-05-01T15:31:44.597Z,101595.88
2023-05-01T15:34:11.142Z,101595.28
2023-05-01T15:36:37.494Z,101595.47
2023-05-01T15:39:04.119Z,101574.81
2023-05-01T15:41:30.875Z,101594.88
2023-05-01T15:43:57.389Z,101600.28
2023-05-01T15:46:25.288Z,101606.25
2023-05-01T15:48:51.744Z,101605.72
2023-05-01T15:51:18.093Z,101599.25
2023-05-01T15:53:44.496Z,101615.75
2023-05-01T15:56:11.017Z,101610.59
2023-05-01T15:58:37.425Z,101616.66
2023-05-01T16:01:03.858Z,101617.16
2023-05-01T16:03:30.902Z,101589.72
2023-05-01T16:05:57.937Z,101603.69
2023-05-01T16:08:24.385Z,101616.72
2023-05-01T16:10:51.343Z,101618.31
2023-05-01T16:13:17.706Z,101622.69
2023-05-01T16:15:44.090Z,101623.31
2023-05-01T16:18:19.367Z,101619.00
2023-05-01T16:20:45.841Z,101615.41
2023-05-01T16:23:14.783Z,101614.28
2023-05-01T16:25:43.022Z,101621.53
2023-05-01T16:28:09.494Z,101628.28
2023-05-01T16:30:35.927Z,101631.56
2023-05-01T16:33:05.158Z,101633.59
2023-05-01T16:35:31.815Z,101638.63
2023-05-01T16:37:59.728Z,101632.75
2023-05-01T16:40:26.201Z,101626.75
2023-05-01T16:42:54.052Z,101637.97
2023-05-01T16:45:21.272Z,101644.56
2023-05-01T16:47:47.707Z,101641.41
2023-05-01T16:50:14.554Z,101641.22
2023-05-01T16:52:41.076Z,101642.53
2023-05-01T16:55:07.874Z,101642.34
2023-05-01T16:57:34.326Z,101644.88
2023-05-01T17:00:01.465Z,101638.81
2023-05-01T17:02:28.140Z,101618.03
2023-05-01T17:04:54.581Z,101645.50
2023-05-01T17:07:23.618Z,101647.81
2023-05-01T17:09:50.187Z,101619.97
2023-05-01T17:12:16.644Z,101652.41
2023-05-01T17:14:43.008Z,101654.41
2023-05-01T17:17:09.749Z,101643.59
2023-05-01T17:19:38.882Z,101646.34
2023-05-01T17:22:06.266Z,101644.88
2023-05-01T17:24:32.855Z,101624.16
2023-05-01T17:26:59.327Z,101643.84
2023-05-01T17:29:27.237Z,101638.41
2023-05-01T17:31:53.647Z,101648.03
2023-05-01T17:34:20.140Z,101653.03
2023-05-01T17:36:46.647Z,101643.19
2023-05-01T17:39:13.063Z,101656.72
2023-05-01T17:41:39.524Z,101663.28
2023-05-01T17:44:06.062Z,101635.44
2023-05-01T17:46:32.556Z,101647.06
2023-05-01T17:48:58.948Z,101659.22
2023-05-01T17:51:25.305Z,101666.47
2023-05-01T17:53:52.590Z,101662.94
2023-05-01T17:56:19.042Z,101666.06
2023-05-01T17:58:45.402Z,101663.81
2023-05-01T18:01:11.829Z,101658.34
2023-05-01T18:03:39.002Z,101669.16
2023-05-01T18:06:05.940Z,101671.97
2023-05-01T18:08:32.318Z,101672.31
2023-05-01T18:10:58.696Z,101672.59
2023-05-01T18:13:28.703Z,101681.34
2023-05-01T18:15:56.025Z,101685.75
2023-05-01T18:18:23.000Z,101682.84
2023-05-01T18:20:49.380Z,101676.59
2023-05-01T18:23:18.519Z,101689.44
2023-05-01T18:25:45.157Z,101691.81
2023-05-01T18:28:11.777Z,101698.44
2023-05-01T18:30:38.134Z,101686.56
2023-05-01T18:33:04.692Z,101674.72
2023-05-01T18:35:31.094Z,101705.53
2023-05-01T18:37:57.449Z,101705.56
2023-05-01T18:40:24.273Z,101708.09
2023-05-01T18:42:51.442Z,101713.63
2023-05-01T18:45:17.928Z,101715.19
2023-05-01T18:47:44.453Z,101721.56
2023-05-01T18:50:11.418Z,101721.81
2023-05-01T18:52:37.904Z,101718.00
2023-05-01T18:55:04.616Z,101735.34
2023-05-01T18:57:31.644Z,101726.81
2023-05-01T18:59:58.331Z,101727.16
2023-05-01T19:02:24.922Z,101736.63
2023-05-01T19:04:57.524Z,101744.47
2023-05-01T19:07:25.542Z,101749.06
2023-05-01T19:09:51.940Z,101736.34
2023-05-01T19:12:18.288Z,101750.41
2023-05-01T19:14:44.742Z,101728.94
2023-05-01T19:17:11.230Z,101767.63
2023-05-01T19:19:37.723Z,101760.59
2023-05-01T19:22:04.173Z,101762.78
2023-05-01T19:24:30.592Z,101780.84
2023-05-01T19:26:56.967Z,101770.56
2023-05-01T19:29:23.420Z,101783.19
2023-05-01T19:31:50.165Z,101786.53
2023-05-01T19:34:16.647Z,101780.44
2023-05-01T19:36:43.151Z,101779.34
2023-05-01T19:39:10.118Z,101794.50
2023-05-01T19:41:36.937Z,101796.53
2023-05-01T19:44:03.466Z,101788.41
2023-05-01T19:46:29.973Z,101794.50
2023-05-01T19:48:56.404Z,101799.88
2023-05-01T19:51:22.948Z,101801.59
2023-05-01T19:53:49.303Z,101793.44
2023-05-01T19:56:15.687Z,101792.13
2023-05-01T19:58:42.075Z,101793.34
2023-05-01T20:01:11.632Z,101794.88
2023-05-01T20:03:38.333Z,101792.53
2023-05-01T20:06:06.341Z,101768.56
2023-05-01T20:08:33.488Z,101797.25
2023-05-01T20:11:01.604Z,101799.63
2023-05-01T20:13:28.143Z,101799.47
2023-05-01T20:15:54.586Z,101804.34
2023-05-01T20:18:21.165Z,101811.13
2023-05-01T20:20:47.762Z,101788.69
2023-05-01T20:23:19.420Z,101796.44
2023-05-01T20:25:48.834Z,101800.16
2023-05-01T20:28:15.309Z,101816.69
2023-05-01T20:30:43.704Z,101818.13
2023-05-01T20:33:10.994Z,101817.28
2023-05-01T20:35:38.152Z,101815.13
2023-05-01T20:38:04.747Z,101824.53
2023-05-01T20:40:32.200Z,101827.53
2023-05-01T20:42:59.510Z,101786.03
2023-05-01T20:45:26.737Z,101838.69
2023-05-01T20:47:53.633Z,101841.19
2023-05-01T20:50:20.093Z,101844.41
2023-05-01T20:52:46.776Z,101845.69
2023-05-01T20:55:13.168Z,101825.78
2023-05-01T20:57:40.101Z,101847.09
2023-05-01T21:00:07.799Z,101841.56
2023-05-01T21:02:37.768Z,101847.81
2023-05-01T21:05:05.418Z,101850.19
2023-05-01T21:07:31.892Z,101834.97
2023-05-01T21:09:58.448Z,101846.13
2023-05-01T21:12:25.150Z,101839.72
2023-05-01T21:14:51.505Z,101845.78
2023-05-01T21:17:18.176Z,101839.28
2023-05-01T21:19:46.733Z,101839.78
2023-05-01T21:22:18.309Z,101835.06
2023-05-01T21:24:45.294Z,101838.09
2023-05-01T21:27:12.341Z,101842.09
2023-05-01T21:29:40.435Z,101835.06
2023-05-01T21:32:07.990Z,101839.31
2023-05-01T21:34:35.264Z,101820.66
2023-05-01T21:37:01.697Z,101835.38
2023-05-01T21:39:28.216Z,101834.84
2023-05-01T21:41:54.693Z,101830.69
2023-05-01T21:44:22.518Z,101842.31
2023-05-01T21:46:50.867Z,101842.59
2023-05-01T21:49:22.823Z,101837.75
2023-05-01T21:51:49.266Z,101830.78
2023-05-01T21:54:16.516Z,101836.41
2023-05-01T21:56:42.940Z,101836.38
2023-05-01T21:59:09.842Z,101837.09
2023-05-01T22:01:38.831Z,101841.69
2023-05-01T22:04:07.105Z,101844.56
2023-05-01T22:06:33.711Z,101839.72
2023-05-01T22:09:00.221Z,101842.66
2023-05-01T22:11:26.607Z,101852.19
2023-05-01T22:13:52.982Z,101847.78
2023-05-01T22:16:19.391Z,101857.03
2023-05-01T22:18:48.050Z,101863.25
2023-05-01T22:21:16.494Z,101864.13
2023-05-01T22:23:42.964Z,101860.88
2023-05-01T22:26:09.480Z,101861.88
2023-05-01T22:28:35.865Z,101864.91
2023-05-01T22:31:02.437Z,101877.84
2023-05-01T22:33:28.868Z,101853.97
2023-05-01T22:35:55.227Z,101872.91
2023-05-01T22:38:21.643Z,101874.75
2023-05-01T22:40:48.025Z,101872.34
2023-05-01T22:43:14.428Z,101883.97
2023-05-01T22:45:40.775Z,101889.56
2023-05-01T22:48:07.237Z,101888.34
2023-05-01T22:50:33.822Z,101887.97
2023-05-01T22:53:00.575Z,101894.88
2023-05-01T22:55:26.964Z,101901.56
2023-05-01T22:57:53.357Z,101914.41
2023-05-01T23:00:20.349Z,101912.34
2023-05-01T23:02:46.852Z,101912.69
2023-05-01T23:05:13.310Z,101911.47
2023-05-01T23:07:39.895Z,101913.97
2023-05-01T23:10:07.195Z,101924.56
2023-05-01T23:12:34.033Z,101920.59
2023-05-01T23:15:00.610Z,101928.66
2023-05-01T23:17:33.349Z,101919.63
2023-05-01T23:20:00.242Z,101916.78
2023-05-01T23:22:29.571Z,101913.72
2023-05-01T23:24:55.959Z,101922.25
2023-05-01T23:27:22.550Z,101926.72
2023-05-01T23:29:57.568Z,101922.19
2023-05-01T23:32:30.474Z,101926.88
2023-05-01T23:35:07.591Z,101923.50
2023-05-01T23:37:33.989Z,101880.63
2023-05-01T23:40:01.821Z,101930.47
2023-05-01T23:42:28.606Z,101933.63
2023-05-01T23:44:56.081Z,101933.63
2023-05-01T23:47:22.787Z,101900.25
2023-05-01T23:49:49.822Z,101939.75
2023-05-01T23:52:16.445Z,101940.84
2023-05-01T23:54:42.845Z,101928.06
2023-05-01T23:57:09.298Z,101946.03
2023-05-01T23:59:35.644Z,101947.03
